AUA35X LKPR-LOWW
Flight info
| Callsign | AUA35X |
|---|---|
| Flight time | 0h 37m |
| Altitude | 17000 |
| Route | VOZ4B/30 VOZ DCT LANUX LANUX7W |
| Aircraft | A321/M-SDE3FGHIRWY/LB1 |
Departure
| Time | 2026-05-06 17:27 |
|---|---|
| Airport | Václav Havel Airport Prague (LKPR) |
Arrival
| Time | 2026-05-06 18:05 |
|---|---|
| Airport | Vienna International Airport (LOWW) |
| Time | Latitude | Longitude | Altitude | Speed | Heading |
|---|---|---|---|---|---|
| 2026-05-06 16:54 | 50.10563 | 14.26347 | 1178 ft | 0 kts | 34° |
| 2026-05-06 17:17 | 50.10546 | 14.26329 | 1177 ft | 4 kts | 34° |
| 2026-05-06 17:17 | 50.10523 | 14.26309 | 1174 ft | 4 kts | 12° |
| 2026-05-06 17:18 | 50.10505 | 14.26312 | 1173 ft | 2 kts | 304° |
| 2026-05-06 17:18 | 50.10491 | 14.26345 | 1174 ft | 4 kts | 304° |
| 2026-05-06 17:18 | 50.10476 | 14.26380 | 1173 ft | 4 kts | 304° |
| 2026-05-06 17:18 | 50.10473 | 14.26388 | 1174 ft | 0 kts | 304° |
| 2026-05-06 17:21 | 50.10480 | 14.26371 | 1173 ft | 4 kts | 304° |
| 2026-05-06 17:21 | 50.10504 | 14.26316 | 1173 ft | 11 kts | 304° |
| 2026-05-06 17:21 | 50.10544 | 14.26195 | 1177 ft | 13 kts | 288° |
| 2026-05-06 17:21 | 50.10586 | 14.26082 | 1174 ft | 11 kts | 293° |
| 2026-05-06 17:22 | 50.10560 | 14.25997 | 1180 ft | 9 kts | 213° |
| 2026-05-06 17:22 | 50.10499 | 14.25979 | 1184 ft | 11 kts | 147° |
| 2026-05-06 17:22 | 50.10444 | 14.26091 | 1186 ft | 15 kts | 126° |
| 2026-05-06 17:22 | 50.10371 | 14.26246 | 1189 ft | 20 kts | 127° |
| 2026-05-06 17:23 | 50.10283 | 14.26426 | 1193 ft | 20 kts | 127° |
| 2026-05-06 17:23 | 50.10207 | 14.26584 | 1196 ft | 17 kts | 127° |
| 2026-05-06 17:23 | 50.10134 | 14.26734 | 1198 ft | 21 kts | 127° |
| 2026-05-06 17:23 | 50.10036 | 14.26937 | 1203 ft | 25 kts | 127° |
| 2026-05-06 17:24 | 50.09938 | 14.27140 | 1206 ft | 22 kts | 127° |
| 2026-05-06 17:24 | 50.09841 | 14.27333 | 1205 ft | 23 kts | 134° |
| 2026-05-06 17:24 | 50.09726 | 14.27511 | 1206 ft | 24 kts | 135° |
| 2026-05-06 17:24 | 50.09607 | 14.27688 | 1208 ft | 24 kts | 137° |
| 2026-05-06 17:25 | 50.09498 | 14.27853 | 1213 ft | 20 kts | 135° |
| 2026-05-06 17:25 | 50.09412 | 14.27989 | 1218 ft | 16 kts | 134° |
| 2026-05-06 17:25 | 50.09328 | 14.28122 | 1222 ft | 19 kts | 134° |
| 2026-05-06 17:25 | 50.09231 | 14.28268 | 1227 ft | 18 kts | 145° |
| 2026-05-06 17:26 | 50.09138 | 14.28261 | 1238 ft | 10 kts | 211° |
| 2026-05-06 17:26 | 50.09079 | 14.28149 | 1231 ft | 20 kts | 262° |
| 2026-05-06 17:26 | 50.09213 | 14.27825 | 1230 ft | 68 kts | 307° |
| 2026-05-06 17:26 | 50.09634 | 14.26952 | 1214 ft | 131 kts | 307° |
| 2026-05-06 17:27 | 50.10278 | 14.25614 | 1265 ft | 171 kts | 307° |
| 2026-05-06 17:27 | 50.10976 | 14.24144 | 1957 ft | 168 kts | 306° |
| 2026-05-06 17:27 | 50.11687 | 14.22663 | 2575 ft | 172 kts | 307° |
| 2026-05-06 17:27 | 50.12426 | 14.21189 | 3180 ft | 173 kts | 307° |
| 2026-05-06 17:28 | 50.13174 | 14.19688 | 3581 ft | 177 kts | 306° |
| 2026-05-06 17:28 | 50.13919 | 14.18151 | 4035 ft | 178 kts | 304° |
| 2026-05-06 17:28 | 50.14653 | 14.16592 | 4513 ft | 179 kts | 303° |
| 2026-05-06 17:28 | 50.15419 | 14.14965 | 4689 ft | 198 kts | 304° |
| 2026-05-06 17:29 | 50.16267 | 14.13172 | 4945 ft | 212 kts | 304° |
| 2026-05-06 17:29 | 50.17181 | 14.11273 | 5217 ft | 225 kts | 304° |
| 2026-05-06 17:29 | 50.18140 | 14.09256 | 5504 ft | 241 kts | 303° |
| 2026-05-06 17:29 | 50.18970 | 14.06865 | 5689 ft | 261 kts | 277° |
| 2026-05-06 17:30 | 50.18768 | 14.04063 | 6180 ft | 266 kts | 241° |
| 2026-05-06 17:30 | 50.17567 | 14.01913 | 6876 ft | 266 kts | 216° |
| 2026-05-06 17:30 | 50.16016 | 14.00347 | 7673 ft | 267 kts | 210° |
| 2026-05-06 17:30 | 50.14351 | 13.99044 | 8415 ft | 270 kts | 197° |
| 2026-05-06 17:31 | 50.12517 | 13.98604 | 9150 ft | 273 kts | 182° |
| 2026-05-06 17:31 | 50.10614 | 13.98878 | 9872 ft | 278 kts | 169° |
| 2026-05-06 17:31 | 50.08766 | 13.99894 | 10405 ft | 290 kts | 160° |
| 2026-05-06 17:31 | 50.06841 | 14.01187 | 10545 ft | 313 kts | 159° |
| 2026-05-06 17:32 | 50.04784 | 14.02597 | 10681 ft | 333 kts | 159° |
| 2026-05-06 17:32 | 50.02632 | 14.04095 | 11159 ft | 342 kts | 159° |
| 2026-05-06 17:32 | 50.00447 | 14.05630 | 11716 ft | 348 kts | 159° |
| 2026-05-06 17:32 | 49.98341 | 14.07553 | 12335 ft | 358 kts | 143° |
| 2026-05-06 17:33 | 49.96596 | 14.10383 | 12976 ft | 365 kts | 135° |
| 2026-05-06 17:33 | 49.94943 | 14.13326 | 13626 ft | 369 kts | 134° |
| 2026-05-06 17:33 | 49.93263 | 14.16355 | 14226 ft | 372 kts | 134° |
| 2026-05-06 17:33 | 49.91575 | 14.19414 | 14837 ft | 374 kts | 134° |
| 2026-05-06 17:34 | 49.89878 | 14.22492 | 15412 ft | 377 kts | 135° |
| 2026-05-06 17:34 | 49.88166 | 14.25586 | 15681 ft | 378 kts | 135° |
| 2026-05-06 17:34 | 49.86454 | 14.28670 | 15746 ft | 377 kts | 135° |
| 2026-05-06 17:34 | 49.84741 | 14.31742 | 15753 ft | 377 kts | 135° |
| 2026-05-06 17:35 | 49.83025 | 14.34805 | 15756 ft | 376 kts | 135° |
| 2026-05-06 17:35 | 49.81307 | 14.37868 | 15755 ft | 376 kts | 135° |
| 2026-05-06 17:35 | 49.79583 | 14.40932 | 15991 ft | 379 kts | 135° |
| 2026-05-06 17:36 | 49.76127 | 14.47077 | 16713 ft | 382 kts | 135° |
| 2026-05-06 17:36 | 49.74366 | 14.50200 | 16743 ft | 388 kts | 135° |
| 2026-05-06 17:36 | 49.72583 | 14.53358 | 16738 ft | 390 kts | 135° |
| 2026-05-06 17:36 | 49.70801 | 14.56514 | 16760 ft | 390 kts | 135° |
| 2026-05-06 17:37 | 49.69019 | 14.59675 | 16739 ft | 391 kts | 136° |
| 2026-05-06 17:37 | 49.67231 | 14.62846 | 16739 ft | 391 kts | 136° |
| 2026-05-06 17:37 | 49.65441 | 14.66006 | 16733 ft | 391 kts | 136° |
| 2026-05-06 17:37 | 49.63651 | 14.69160 | 16736 ft | 391 kts | 136° |
| 2026-05-06 17:38 | 49.61857 | 14.72318 | 16740 ft | 391 kts | 136° |
| 2026-05-06 17:38 | 49.60066 | 14.75470 | 16736 ft | 391 kts | 136° |
| 2026-05-06 17:38 | 49.58270 | 14.78620 | 16737 ft | 391 kts | 136° |
| 2026-05-06 17:38 | 49.56475 | 14.81765 | 16731 ft | 391 kts | 136° |
| 2026-05-06 17:39 | 49.54681 | 14.84910 | 16720 ft | 391 kts | 136° |
| 2026-05-06 17:39 | 49.52829 | 14.87866 | 16724 ft | 386 kts | 143° |
| 2026-05-06 17:39 | 49.50727 | 14.90408 | 16715 ft | 384 kts | 147° |
| 2026-05-06 17:39 | 49.48598 | 14.92890 | 16697 ft | 384 kts | 148° |
| 2026-05-06 17:40 | 49.46471 | 14.95363 | 16707 ft | 383 kts | 148° |
| 2026-05-06 17:40 | 49.44342 | 14.97835 | 16707 ft | 383 kts | 148° |
| 2026-05-06 17:40 | 49.42218 | 15.00304 | 16709 ft | 383 kts | 148° |
| 2026-05-06 17:40 | 49.40092 | 15.02776 | 16715 ft | 383 kts | 148° |
| 2026-05-06 17:41 | 49.37967 | 15.05242 | 16721 ft | 383 kts | 148° |
| 2026-05-06 17:41 | 49.35843 | 15.07701 | 16723 ft | 383 kts | 148° |
| 2026-05-06 17:41 | 49.33717 | 15.10159 | 16722 ft | 383 kts | 148° |
| 2026-05-06 17:41 | 49.31622 | 15.12584 | 16726 ft | 383 kts | 148° |
| 2026-05-06 17:42 | 49.29496 | 15.15047 | 16728 ft | 383 kts | 148° |
| 2026-05-06 17:42 | 49.27374 | 15.17502 | 16728 ft | 383 kts | 148° |
| 2026-05-06 17:42 | 49.25251 | 15.19955 | 16729 ft | 382 kts | 148° |
| 2026-05-06 17:42 | 49.23126 | 15.22406 | 16727 ft | 382 kts | 148° |
| 2026-05-06 17:43 | 49.21000 | 15.24853 | 16701 ft | 382 kts | 147° |
| 2026-05-06 17:43 | 49.18876 | 15.27294 | 16704 ft | 382 kts | 148° |
| 2026-05-06 17:43 | 49.16746 | 15.29737 | 16703 ft | 383 kts | 148° |
| 2026-05-06 17:43 | 49.14617 | 15.32181 | 16707 ft | 383 kts | 148° |
| 2026-05-06 17:44 | 49.12506 | 15.34605 | 16517 ft | 375 kts | 148° |
| 2026-05-06 17:44 | 49.10480 | 15.36931 | 16266 ft | 365 kts | 148° |
| 2026-05-06 17:44 | 49.08479 | 15.39225 | 16013 ft | 355 kts | 148° |
| 2026-05-06 17:44 | 49.06522 | 15.41462 | 15753 ft | 349 kts | 148° |
| 2026-05-06 17:45 | 49.04583 | 15.43668 | 15506 ft | 347 kts | 148° |
| 2026-05-06 17:45 | 49.02651 | 15.45861 | 15260 ft | 344 kts | 148° |
| 2026-05-06 17:45 | 49.00750 | 15.47996 | 15009 ft | 336 kts | 148° |
| 2026-05-06 17:45 | 48.98900 | 15.50074 | 14862 ft | 325 kts | 148° |
| 2026-05-06 17:46 | 48.97711 | 15.51426 | 14683 ft | 321 kts | 148° |
| 2026-05-06 17:46 | 48.95936 | 15.53464 | 14344 ft | 318 kts | 147° |
| 2026-05-06 17:46 | 48.94173 | 15.55481 | 13979 ft | 316 kts | 147° |
| 2026-05-06 17:46 | 48.92423 | 15.57473 | 13634 ft | 313 kts | 147° |
| 2026-05-06 17:47 | 48.90684 | 15.59453 | 13280 ft | 311 kts | 147° |
| 2026-05-06 17:47 | 48.88395 | 15.62060 | 12933 ft | 310 kts | 147° |
| 2026-05-06 17:47 | 48.87240 | 15.63408 | 12782 ft | 309 kts | 146° |
| 2026-05-06 17:47 | 48.85003 | 15.66082 | 12712 ft | 309 kts | 146° |
| 2026-05-06 17:48 | 48.83863 | 15.67458 | 12714 ft | 310 kts | 146° |
| 2026-05-06 17:48 | 48.82177 | 15.69494 | 12703 ft | 310 kts | 146° |
| 2026-05-06 17:48 | 48.80512 | 15.71504 | 12449 ft | 309 kts | 146° |
| 2026-05-06 17:48 | 48.78833 | 15.73528 | 12187 ft | 308 kts | 146° |
| 2026-05-06 17:49 | 48.77155 | 15.75541 | 11935 ft | 307 kts | 146° |
| 2026-05-06 17:49 | 48.75482 | 15.77539 | 11687 ft | 306 kts | 146° |
| 2026-05-06 17:49 | 48.73812 | 15.79529 | 11431 ft | 305 kts | 146° |
| 2026-05-06 17:49 | 48.72149 | 15.81510 | 11182 ft | 304 kts | 146° |
| 2026-05-06 17:50 | 48.70487 | 15.83487 | 10937 ft | 303 kts | 146° |
| 2026-05-06 17:50 | 48.68834 | 15.85452 | 10676 ft | 302 kts | 146° |
| 2026-05-06 17:50 | 48.67183 | 15.87411 | 10433 ft | 301 kts | 146° |
| 2026-05-06 17:50 | 48.65561 | 15.89335 | 10194 ft | 300 kts | 146° |
| 2026-05-06 17:51 | 48.63926 | 15.91275 | 9956 ft | 299 kts | 146° |
| 2026-05-06 17:51 | 48.62325 | 15.93177 | 9947 ft | 288 kts | 146° |
| 2026-05-06 17:51 | 48.60771 | 15.95021 | 9960 ft | 279 kts | 146° |
| 2026-05-06 17:51 | 48.59257 | 15.96817 | 9965 ft | 275 kts | 146° |
| 2026-05-06 17:52 | 48.57753 | 15.98599 | 9972 ft | 275 kts | 146° |
| 2026-05-06 17:52 | 48.56251 | 16.00373 | 9972 ft | 274 kts | 146° |
| 2026-05-06 17:52 | 48.54751 | 16.02139 | 9745 ft | 272 kts | 146° |
| 2026-05-06 17:52 | 48.53282 | 16.03870 | 9372 ft | 271 kts | 146° |
| 2026-05-06 17:53 | 48.51798 | 16.05617 | 8993 ft | 270 kts | 146° |
| 2026-05-06 17:53 | 48.50319 | 16.07356 | 8622 ft | 269 kts | 146° |
| 2026-05-06 17:53 | 48.48913 | 16.09210 | 8250 ft | 270 kts | 135° |
| 2026-05-06 17:53 | 48.47827 | 16.11524 | 7994 ft | 272 kts | 121° |
| 2026-05-06 17:54 | 48.47104 | 16.14184 | 7982 ft | 276 kts | 113° |
| 2026-05-06 17:54 | 48.46442 | 16.16905 | 7964 ft | 277 kts | 114° |
| 2026-05-06 17:54 | 48.45767 | 16.19640 | 7975 ft | 279 kts | 114° |
| 2026-05-06 17:54 | 48.45102 | 16.22325 | 7970 ft | 266 kts | 114° |
| 2026-05-06 17:55 | 48.44465 | 16.24897 | 7782 ft | 260 kts | 115° |
| 2026-05-06 17:55 | 48.43841 | 16.27395 | 7477 ft | 258 kts | 115° |
| 2026-05-06 17:55 | 48.43210 | 16.29918 | 7146 ft | 257 kts | 114° |
| 2026-05-06 17:55 | 48.42583 | 16.32419 | 6985 ft | 256 kts | 114° |
| 2026-05-06 17:56 | 48.41954 | 16.34927 | 6992 ft | 256 kts | 116° |
| 2026-05-06 17:56 | 48.41006 | 16.37108 | 6829 ft | 245 kts | 145° |
| 2026-05-06 17:56 | 48.39547 | 16.38227 | 6496 ft | 232 kts | 175° |
| 2026-05-06 17:56 | 48.38003 | 16.38001 | 6149 ft | 222 kts | 206° |
| 2026-05-06 17:57 | 48.36775 | 16.36656 | 5999 ft | 220 kts | 224° |
| 2026-05-06 17:57 | 48.35659 | 16.35022 | 6000 ft | 226 kts | 225° |
| 2026-05-06 17:57 | 48.34552 | 16.33353 | 5999 ft | 223 kts | 225° |
| 2026-05-06 17:57 | 48.33902 | 16.32374 | 5870 ft | 218 kts | 225° |
| 2026-05-06 17:58 | 48.32829 | 16.30758 | 5445 ft | 218 kts | 225° |
| 2026-05-06 17:58 | 48.31766 | 16.29138 | 5044 ft | 216 kts | 224° |
| 2026-05-06 17:58 | 48.30541 | 16.27871 | 4994 ft | 215 kts | 208° |
| 2026-05-06 17:58 | 48.29175 | 16.26916 | 5004 ft | 217 kts | 206° |
| 2026-05-06 17:59 | 48.27817 | 16.26003 | 5001 ft | 218 kts | 205° |
| 2026-05-06 17:59 | 48.26409 | 16.25082 | 4992 ft | 210 kts | 202° |
| 2026-05-06 17:59 | 48.25006 | 16.24974 | 4984 ft | 206 kts | 168° |
| 2026-05-06 17:59 | 48.23749 | 16.26066 | 4997 ft | 212 kts | 148° |
| 2026-05-06 18:00 | 48.22643 | 16.27452 | 4688 ft | 208 kts | 146° |
| 2026-05-06 18:00 | 48.21554 | 16.28875 | 4162 ft | 208 kts | 145° |
| 2026-05-06 18:00 | 48.20458 | 16.30242 | 4003 ft | 199 kts | 148° |
| 2026-05-06 18:00 | 48.19422 | 16.31525 | 3865 ft | 195 kts | 139° |
| 2026-05-06 18:01 | 48.18763 | 16.33332 | 3570 ft | 198 kts | 122° |
| 2026-05-06 18:01 | 48.18203 | 16.35180 | 3238 ft | 193 kts | 123° |
| 2026-05-06 18:01 | 48.17616 | 16.36955 | 3032 ft | 188 kts | 124° |
| 2026-05-06 18:01 | 48.17039 | 16.38704 | 2806 ft | 186 kts | 123° |
| 2026-05-06 18:02 | 48.16478 | 16.40436 | 2555 ft | 183 kts | 124° |
| 2026-05-06 18:02 | 48.15929 | 16.42131 | 2265 ft | 178 kts | 123° |
| 2026-05-06 18:02 | 48.15424 | 16.43703 | 2048 ft | 160 kts | 127° |
| 2026-05-06 18:02 | 48.14952 | 16.45142 | 1815 ft | 149 kts | 127° |
| 2026-05-06 18:03 | 48.14505 | 16.46495 | 1622 ft | 146 kts | 126° |
| 2026-05-06 18:03 | 48.14057 | 16.47872 | 1410 ft | 151 kts | 124° |
| 2026-05-06 18:03 | 48.13609 | 16.49257 | 1251 ft | 148 kts | 125° |
| 2026-05-06 18:03 | 48.13160 | 16.50637 | 1028 ft | 147 kts | 121° |
| 2026-05-06 18:04 | 48.12712 | 16.52007 | 834 ft | 146 kts | 122° |
| 2026-05-06 18:04 | 48.12271 | 16.53367 | 642 ft | 145 kts | 121° |
| 2026-05-06 18:04 | 48.11867 | 16.54604 | 618 ft | 107 kts | 115° |
| 2026-05-06 18:04 | 48.11626 | 16.55347 | 617 ft | 54 kts | 116° |
| 2026-05-06 18:05 | 48.11504 | 16.55753 | 610 ft | 38 kts | 103° |
| 2026-05-06 18:05 | 48.11506 | 16.56053 | 610 ft | 18 kts | 81° |
| 2026-05-06 18:05 | 48.11532 | 16.56134 | 620 ft | 0 kts | 36° |
| 2026-05-06 18:06 | 48.11544 | 16.56145 | 616 ft | 5 kts | 30° |
| 2026-05-06 18:06 | 48.11587 | 16.56175 | 623 ft | 7 kts | 24° |
| 2026-05-06 18:06 | 48.11627 | 16.56216 | 615 ft | 9 kts | 56° |
| 2026-05-06 18:07 | 48.11609 | 16.56326 | 623 ft | 15 kts | 118° |
| 2026-05-06 18:07 | 48.11564 | 16.56466 | 613 ft | 15 kts | 115° |
| 2026-05-06 18:07 | 48.11519 | 16.56605 | 617 ft | 15 kts | 116° |
| 2026-05-06 18:07 | 48.11474 | 16.56742 | 612 ft | 15 kts | 116° |
| 2026-05-06 18:08 | 48.11427 | 16.56886 | 621 ft | 17 kts | 116° |
| 2026-05-06 18:08 | 48.11373 | 16.57050 | 620 ft | 19 kts | 116° |
| 2026-05-06 18:08 | 48.11322 | 16.57209 | 618 ft | 13 kts | 116° |
| 2026-05-06 18:08 | 48.11306 | 16.57315 | 615 ft | 10 kts | 65° |
| 2026-05-06 18:09 | 48.11363 | 16.57368 | 615 ft | 9 kts | 26° |
| 2026-05-06 18:09 | 48.11417 | 16.57407 | 621 ft | 8 kts | 25° |
| 2026-05-06 18:09 | 48.11463 | 16.57440 | 623 ft | 7 kts | 25° |
| 2026-05-06 18:09 | 48.11514 | 16.57462 | 610 ft | 9 kts | 3° |
| 2026-05-06 18:10 | 48.11594 | 16.57437 | 613 ft | 14 kts | 345° |
| 2026-05-06 18:10 | 48.11700 | 16.57392 | 615 ft | 16 kts | 343° |
| 2026-05-06 18:10 | 48.11799 | 16.57345 | 620 ft | 14 kts | 331° |
| 2026-05-06 18:10 | 48.11850 | 16.57233 | 621 ft | 12 kts | 298° |
| 2026-05-06 18:11 | 48.11900 | 16.57149 | 613 ft | 9 kts | 299° |
| 2026-05-06 18:11 | 48.11920 | 16.57085 | 618 ft | 3 kts | 295° |
| 2026-05-06 18:11 | 48.11938 | 16.57072 | 622 ft | 5 kts | 357° |
| 2026-05-06 18:11 | 48.11975 | 16.57095 | 623 ft | 2 kts | 26° |